sensor_id;sensor_type;location;lat;lon;timestamp;P1;durP1;ratioP1;P2;durP2;ratioP2
20306;SDS011;10312;52.434;13.206;2023-04-21T07:50:59;14.00;;;8.40;;
20306;SDS011;10312;52.434;13.206;2023-04-21T07:53:27;11.80;;;7.82;;
20306;SDS011;10312;52.434;13.206;2023-04-21T07:55:56;14.38;;;8.57;;
20306;SDS011;10312;52.434;13.206;2023-04-21T07:58:23;16.08;;;8.07;;
20306;SDS011;10312;52.434;13.206;2023-04-21T08:00:50;13.63;;;8.40;;
20306;SDS011;10312;52.434;13.206;2023-04-21T08:03:17;16.17;;;8.32;;
20306;SDS011;10312;52.434;13.206;2023-04-21T08:05:47;13.80;;;8.15;;
20306;SDS011;10312;52.434;13.206;2023-04-21T08:08:14;13.38;;;8.00;;
20306;SDS011;10312;52.434;13.206;2023-04-21T08:10:45;15.13;;;8.10;;
20306;SDS011;10312;52.434;13.206;2023-04-21T08:13:12;14.15;;;8.20;;
20306;SDS011;10312;52.434;13.206;2023-04-21T08:15:41;15.77;;;8.20;;
20306;SDS011;10312;52.434;13.206;2023-04-21T08:18:08;12.70;;;8.52;;
20306;SDS011;10312;52.434;13.206;2023-04-21T08:20:35;12.65;;;7.32;;
20306;SDS011;10312;52.434;13.206;2023-04-21T08:23:02;12.52;;;7.53;;
20306;SDS011;10312;52.434;13.206;2023-04-21T08:25:29;12.20;;;7.55;;
20306;SDS011;10312;52.434;13.206;2023-04-21T08:27:56;10.25;;;7.35;;
20306;SDS011;10312;52.434;13.206;2023-04-21T08:30:24;12.45;;;7.20;;
20306;SDS011;10312;52.434;13.206;2023-04-21T08:32:52;11.15;;;7.88;;
20306;SDS011;10312;52.434;13.206;2023-04-21T08:35:19;13.52;;;7.57;;
20306;SDS011;10312;52.434;13.206;2023-04-21T08:37:46;12.20;;;6.57;;
20306;SDS011;10312;52.434;13.206;2023-04-21T08:40:16;14.73;;;6.80;;
20306;SDS011;10312;52.434;13.206;2023-04-21T08:42:44;16.77;;;7.20;;
20306;SDS011;10312;52.434;13.206;2023-04-21T08:45:13;11.27;;;6.38;;
20306;SDS011;10312;52.434;13.206;2023-04-21T08:47:40;11.52;;;7.22;;
20306;SDS011;10312;52.434;13.206;2023-04-21T08:50:10;12.00;;;7.10;;
20306;SDS011;10312;52.434;13.206;2023-04-21T08:52:38;13.10;;;6.88;;
20306;SDS011;10312;52.434;13.206;2023-04-21T08:55:06;12.00;;;6.35;;
20306;SDS011;10312;52.434;13.206;2023-04-21T08:57:33;11.73;;;6.82;;
20306;SDS011;10312;52.434;13.206;2023-04-21T09:00:00;12.40;;;6.75;;
20306;SDS011;10312;52.434;13.206;2023-04-21T09:02:27;11.60;;;6.78;;
20306;SDS011;10312;52.434;13.206;2023-04-21T09:04:55;8.50;;;6.65;;
20306;SDS011;10312;52.434;13.206;2023-04-21T09:07:30;10.55;;;6.50;;
20306;SDS011;10312;52.434;13.206;2023-04-21T09:09:58;11.18;;;6.25;;
20306;SDS011;10312;52.434;13.206;2023-04-21T09:12:28;8.70;;;5.68;;
20306;SDS011;10312;52.434;13.206;2023-04-21T09:14:55;8.57;;;6.18;;
20306;SDS011;10312;52.434;13.206;2023-04-21T09:17:29;11.63;;;7.18;;
20306;SDS011;10312;52.434;13.206;2023-04-21T09:20:12;12.13;;;6.25;;
20306;SDS011;10312;52.434;13.206;2023-04-21T09:22:41;13.40;;;6.57;;
20306;SDS011;10312;52.434;13.206;2023-04-21T09:25:08;10.27;;;5.72;;
20306;SDS011;10312;52.434;13.206;2023-04-21T09:27:35;8.70;;;6.18;;
20306;SDS011;10312;52.434;13.206;2023-04-21T09:30:02;8.90;;;5.63;;
20306;SDS011;10312;52.434;13.206;2023-04-21T09:32:38;11.48;;;6.50;;
20306;SDS011;10312;52.434;13.206;2023-04-21T09:35:12;10.67;;;6.20;;
20306;SDS011;10312;52.434;13.206;2023-04-21T09:37:39;13.80;;;6.15;;
